createdAt,value
2018-05-15T00:02:21.999Z,3.47
2018-05-15T00:08:54.770Z,5.47
2018-05-15T00:11:58.288Z,4.97
2018-05-15T00:15:01.525Z,4.20
2018-05-15T00:18:05.239Z,4.70
2018-05-15T00:21:09.217Z,4.30
2018-05-15T00:24:12.461Z,3.90
2018-05-15T00:27:15.685Z,3.97
2018-05-15T00:30:21.592Z,4.03
2018-05-15T00:33:25.861Z,3.90
2018-05-15T00:36:29.056Z,4.20
2018-05-15T00:39:32.810Z,4.07
2018-05-15T00:42:36.763Z,4.50
2018-05-15T00:45:40.101Z,3.80
2018-05-15T00:48:45.003Z,4.23
2018-05-15T00:51:54.898Z,4.23
2018-05-15T00:55:09.891Z,4.37
2018-05-15T00:58:13.159Z,4.93
2018-05-15T01:01:17.247Z,4.30
2018-05-15T01:04:20.538Z,4.40
2018-05-15T01:07:24.683Z,4.53
2018-05-15T01:10:27.890Z,5.57
2018-05-15T01:13:31.089Z,4.77
2018-05-15T01:16:34.326Z,4.53
2018-05-15T01:19:38.787Z,5.77
2018-05-15T01:22:43.515Z,7.37
2018-05-15T01:25:47.941Z,4.83
2018-05-15T01:28:51.175Z,4.57
2018-05-15T01:31:56.926Z,4.83
2018-05-15T01:35:01.832Z,4.27
2018-05-15T01:38:05.052Z,5.00
2018-05-15T01:41:09.853Z,4.40
2018-05-15T01:44:14.616Z,4.40
2018-05-15T01:47:20.097Z,4.40
2018-05-15T01:50:24.265Z,4.63
2018-05-15T01:53:27.478Z,7.53
2018-05-15T01:56:30.640Z,4.50
2018-05-15T01:59:37.149Z,4.87
2018-05-15T02:02:42.171Z,4.83
2018-05-15T02:05:45.387Z,5.90
2018-05-15T02:08:48.635Z,5.53
2018-05-15T02:11:51.896Z,5.70
2018-05-15T02:14:57.627Z,4.80
2018-05-15T02:18:01.593Z,4.33
2018-05-15T02:21:04.834Z,4.77
2018-05-15T02:24:09.364Z,4.77
2018-05-15T02:27:13.304Z,5.07
2018-05-15T02:30:16.499Z,5.70
2018-05-15T02:33:19.737Z,4.77
2018-05-15T02:36:23.841Z,4.70
2018-05-15T02:39:28.748Z,4.63
2018-05-15T02:42:32.908Z,4.80
2018-05-15T02:45:36.894Z,4.87
2018-05-15T02:48:40.300Z,4.53
2018-05-15T02:51:43.765Z,5.20
2018-05-15T02:54:47.786Z,4.80
2018-05-15T02:57:51.872Z,5.40
2018-05-15T03:00:56.149Z,5.10
2018-05-15T03:03:59.389Z,5.20
2018-05-15T03:07:03.401Z,5.53
2018-05-15T03:10:07.363Z,5.30
2018-05-15T03:13:11.224Z,6.70
2018-05-15T03:16:17.130Z,5.37
2018-05-15T03:19:19.812Z,5.20
2018-05-15T03:22:23.039Z,4.67
2018-05-15T03:25:26.300Z,5.60
2018-05-15T03:28:29.474Z,5.50
2018-05-15T03:31:33.445Z,5.37
2018-05-15T03:34:36.589Z,6.23
2018-05-15T03:37:41.035Z,5.60
2018-05-15T03:40:44.740Z,6.80
2018-05-15T03:43:47.931Z,6.20
2018-05-15T03:46:52.155Z,5.70
2018-05-15T03:49:55.398Z,5.40
2018-05-15T03:52:58.786Z,6.40
2018-05-15T03:56:03.333Z,5.90
2018-05-15T03:59:06.590Z,6.13
2018-05-15T04:02:22.488Z,5.63
2018-05-15T04:09:12.373Z,5.80
2018-05-15T04:12:15.591Z,5.83
2018-05-15T04:15:19.755Z,6.33
2018-05-15T04:18:25.470Z,5.60
2018-05-15T04:21:28.674Z,6.57
2018-05-15T04:24:32.891Z,5.80
2018-05-15T04:27:36.073Z,5.60
2018-05-15T04:30:40.427Z,5.60
2018-05-15T04:33:43.662Z,7.17
2018-05-15T04:36:47.097Z,5.87
2018-05-15T04:39:51.642Z,6.00
2018-05-15T04:42:55.225Z,5.97
2018-05-15T04:45:58.504Z,6.23
2018-05-15T04:49:01.918Z,5.67
2018-05-15T04:52:05.111Z,6.33
2018-05-15T04:55:09.092Z,6.63
2018-05-15T04:58:13.540Z,6.20
2018-05-15T05:01:16.740Z,6.63
2018-05-15T05:04:20.724Z,6.57
2018-05-15T05:07:23.934Z,6.43
2018-05-15T05:10:27.138Z,6.17
2018-05-15T05:13:31.145Z,5.97
2018-05-15T05:16:34.583Z,6.10
2018-05-15T05:19:38.732Z,6.53
2018-05-15T05:22:41.987Z,6.90
2018-05-15T05:25:45.943Z,6.60
2018-05-15T05:28:49.154Z,6.30
2018-05-15T05:31:52.323Z,7.17
2018-05-15T05:34:56.451Z,6.40
2018-05-15T05:38:00.558Z,6.40
2018-05-15T05:41:03.817Z,6.93
2018-05-15T05:44:08.166Z,6.70
2018-05-15T05:47:11.370Z,6.33
2018-05-15T05:50:15.356Z,6.80
2018-05-15T05:53:18.613Z,6.63
2018-05-15T05:56:23.087Z,6.93
2018-05-15T05:59:27.221Z,6.73
2018-05-15T06:02:30.436Z,6.20
2018-05-15T06:05:33.694Z,6.30
2018-05-15T06:08:36.899Z,7.17
2018-05-15T06:11:40.227Z,6.17
2018-05-15T06:14:44.216Z,6.77
2018-05-15T06:17:48.281Z,6.20
2018-05-15T06:20:52.455Z,7.33
2018-05-15T06:23:56.386Z,5.93
2018-05-15T06:26:59.654Z,5.90
2018-05-15T06:30:02.880Z,5.97
2018-05-15T06:33:07.306Z,6.20
2018-05-15T06:36:10.711Z,5.73
2018-05-15T06:39:13.968Z,5.77
2018-05-15T06:42:17.137Z,5.87
2018-05-15T06:45:20.370Z,6.30
2018-05-15T06:48:23.568Z,7.13
2018-05-15T06:51:27.562Z,6.07
2018-05-15T06:54:30.780Z,6.13
2018-05-15T06:57:34.768Z,6.37
2018-05-15T07:00:37.998Z,6.80
2018-05-15T07:03:42.229Z,5.90
2018-05-15T07:06:47.086Z,5.90
2018-05-15T07:09:50.289Z,7.00
2018-05-15T07:12:54.308Z,6.40
2018-05-15T07:15:57.525Z,7.07
2018-05-15T07:19:01.340Z,6.17
2018-05-15T07:22:04.544Z,6.57
2018-05-15T07:25:08.739Z,6.43
2018-05-15T07:28:11.939Z,6.33
2018-05-15T07:31:15.175Z,6.30
2018-05-15T07:34:19.110Z,6.27
2018-05-15T07:37:22.446Z,6.07
2018-05-15T07:40:26.544Z,5.80
2018-05-15T07:43:29.765Z,5.83
2018-05-15T07:46:33.746Z,6.33
2018-05-15T07:49:36.982Z,5.80
2018-05-15T07:52:40.966Z,6.07
2018-05-15T07:55:44.130Z,5.83
2018-05-15T07:58:47.327Z,5.67
2018-05-15T08:01:51.299Z,6.23
2018-05-15T08:04:54.681Z,5.73
2018-05-15T08:07:57.899Z,6.27
2018-05-15T08:11:01.956Z,6.53
2018-05-15T08:14:05.164Z,6.17
2018-05-15T08:17:10.373Z,6.13
2018-05-15T08:20:17.887Z,5.47
2018-05-15T08:23:21.095Z,4.83
2018-05-15T08:26:24.320Z,5.37
2018-05-15T08:29:29.472Z,6.50
2018-05-15T08:32:38.783Z,5.90
2018-05-15T08:35:42.295Z,5.53
2018-05-15T08:38:45.486Z,5.30
2018-05-15T08:41:49.262Z,5.33
2018-05-15T08:44:52.610Z,4.80
2018-05-15T08:47:57.294Z,4.47
2018-05-15T08:51:00.506Z,4.77
2018-05-15T08:54:03.750Z,4.60
2018-05-15T08:57:08.863Z,4.50
2018-05-15T09:00:14.517Z,4.77
2018-05-15T09:03:20.494Z,4.77
2018-05-15T09:06:24.318Z,4.43
2018-05-15T09:09:28.269Z,4.20
2018-05-15T09:12:32.000Z,4.60
2018-05-15T09:15:36.075Z,5.03
2018-05-15T09:18:40.769Z,5.27
2018-05-15T09:21:45.584Z,4.87
2018-05-15T09:24:48.803Z,4.40
2018-05-15T09:27:53.257Z,5.67
2018-05-15T09:30:59.171Z,5.60
2018-05-15T09:34:03.160Z,5.30
2018-05-15T09:37:06.454Z,4.70
2018-05-15T09:40:10.186Z,4.73
2018-05-15T09:43:35.651Z,5.60
2018-05-15T09:46:43.455Z,5.30
2018-05-15T09:49:46.925Z,5.20
2018-05-15T09:52:51.002Z,5.47
2018-05-15T09:55:55.584Z,5.20
2018-05-15T09:58:59.240Z,5.10
2018-05-15T10:02:04.046Z,5.00
2018-05-15T10:05:09.771Z,5.43
2018-05-15T10:08:13.114Z,5.00
2018-05-15T10:11:17.015Z,5.23
2018-05-15T10:14:20.277Z,5.73
2018-05-15T10:17:23.443Z,4.77
2018-05-15T10:20:27.620Z,4.90
2018-05-15T10:23:30.781Z,4.67
2018-05-15T10:26:34.000Z,4.80
2018-05-15T10:29:37.168Z,4.90
2018-05-15T10:32:40.455Z,5.50
2018-05-15T10:35:43.710Z,4.70
2018-05-15T10:38:46.897Z,4.83
2018-05-15T10:41:50.046Z,4.40
2018-05-15T10:44:53.390Z,4.67
2018-05-15T10:47:56.577Z,4.60
2018-05-15T10:51:00.032Z,4.73
2018-05-15T10:54:04.031Z,4.13
2018-05-15T10:57:09.336Z,4.53
2018-05-15T11:00:12.537Z,4.87
2018-05-15T11:03:15.823Z,4.80
2018-05-15T11:06:19.105Z,4.20
2018-05-15T11:09:22.301Z,4.90
2018-05-15T11:12:25.521Z,4.50
2018-05-15T11:15:28.737Z,4.57
2018-05-15T11:18:47.733Z,4.80
2018-05-15T11:22:02.748Z,4.27
2018-05-15T11:25:08.961Z,4.27
2018-05-15T11:28:12.248Z,4.20
2018-05-15T11:31:15.804Z,4.57
2018-05-15T11:34:20.295Z,4.10
2018-05-15T11:37:24.361Z,4.17
2018-05-15T11:40:28.456Z,4.43
2018-05-15T11:43:31.711Z,4.33
2018-05-15T11:46:35.925Z,4.03
2018-05-15T11:49:40.097Z,4.73
2018-05-15T11:52:45.238Z,5.07
2018-05-15T11:55:48.061Z,4.73
2018-05-15T11:58:51.340Z,5.70
2018-05-15T12:01:54.539Z,4.63
2018-05-15T12:04:58.589Z,4.63
2018-05-15T12:08:01.899Z,4.37
2018-05-15T12:11:05.237Z,4.90
2018-05-15T12:14:09.361Z,5.03
2018-05-15T12:17:13.306Z,4.90
2018-05-15T12:20:17.672Z,5.00
2018-05-15T12:23:22.148Z,4.73
2018-05-15T12:26:25.631Z,4.83
2018-05-15T12:29:28.897Z,5.40
2018-05-15T12:32:32.114Z,6.30
2018-05-15T12:35:36.185Z,6.60
2018-05-15T12:38:39.413Z,7.97
2018-05-15T12:41:43.648Z,6.87
2018-05-15T12:44:47.713Z,6.00
2018-05-15T12:47:51.774Z,6.43
2018-05-15T12:50:55.041Z,7.43
2018-05-15T12:53:59.224Z,6.57
2018-05-15T12:57:02.644Z,6.90
2018-05-15T13:00:06.013Z,7.60
2018-05-15T13:03:09.178Z,6.63
2018-05-15T13:06:13.799Z,6.93
2018-05-15T13:09:19.663Z,8.23
2018-05-15T13:12:24.525Z,7.03
2018-05-15T13:15:27.723Z,7.63
2018-05-15T13:18:30.975Z,7.83
2018-05-15T13:21:34.867Z,7.37
2018-05-15T13:24:38.457Z,8.47
2018-05-15T13:27:42.393Z,7.60
2018-05-15T13:30:45.658Z,7.50
2018-05-15T13:33:48.827Z,7.70
2018-05-15T13:36:52.431Z,6.97
2018-05-15T13:39:56.200Z,7.10
2018-05-15T13:42:59.407Z,6.50
2018-05-15T13:46:03.790Z,7.93
2018-05-15T13:49:06.989Z,6.97
2018-05-15T13:52:10.505Z,6.50
2018-05-15T13:55:13.828Z,7.23
2018-05-15T13:58:17.933Z,6.30
2018-05-15T14:01:21.911Z,6.30
2018-05-15T14:04:25.948Z,6.10
2018-05-15T14:07:29.141Z,6.47
2018-05-15T14:10:33.162Z,6.60
2018-05-15T14:13:37.170Z,4.87
2018-05-15T14:16:40.372Z,5.27
2018-05-15T14:19:44.385Z,4.30
2018-05-15T14:22:47.619Z,5.10
2018-05-15T14:25:50.835Z,4.23
2018-05-15T14:29:00.295Z,4.20
2018-05-15T14:32:03.516Z,2.10
2018-05-15T14:35:08.366Z,2.90
2018-05-15T14:38:13.628Z,3.17
2018-05-15T14:41:16.836Z,2.97
2018-05-15T14:44:20.113Z,3.10
2018-05-15T14:47:23.562Z,3.10
2018-05-15T14:50:27.221Z,4.00
2018-05-15T14:53:31.340Z,4.00
2018-05-15T14:56:34.571Z,5.00
2018-05-15T14:59:38.799Z,5.47
2018-05-15T15:02:42.021Z,4.47
2018-05-15T15:05:45.257Z,4.63
2018-05-15T15:08:48.472Z,4.70
2018-05-15T15:11:52.204Z,5.00
2018-05-15T15:14:55.475Z,3.93
2018-05-15T15:17:59.856Z,4.73
2018-05-15T15:21:03.639Z,4.60
2018-05-15T15:24:06.969Z,4.30
2018-05-15T15:27:10.491Z,4.73
2018-05-15T15:30:13.758Z,3.93
2018-05-15T15:33:17.028Z,5.90
2018-05-15T15:36:20.241Z,4.50
2018-05-15T15:39:24.152Z,4.60
2018-05-15T15:42:27.378Z,4.93
2018-05-15T15:45:30.707Z,5.23
2018-05-15T15:48:33.974Z,5.83
2018-05-15T15:51:37.495Z,5.00
2018-05-15T15:54:40.949Z,5.17
2018-05-15T15:57:44.176Z,4.30
2018-05-15T16:00:47.436Z,5.53
2018-05-15T16:03:50.664Z,5.40
2018-05-15T16:06:53.889Z,5.20
2018-05-15T16:09:57.966Z,5.43
2018-05-15T16:13:01.096Z,5.37
2018-05-15T16:16:04.440Z,5.10
2018-05-15T16:19:09.858Z,6.30
2018-05-15T16:22:13.834Z,6.10
2018-05-15T16:25:18.524Z,5.40
2018-05-15T16:28:22.677Z,5.50
2018-05-15T16:31:25.871Z,5.63
2018-05-15T16:34:29.064Z,5.30
2018-05-15T16:37:33.171Z,5.63
2018-05-15T16:40:36.378Z,5.00
2018-05-15T16:43:39.721Z,5.23
2018-05-15T16:46:44.444Z,4.73
2018-05-15T16:49:47.775Z,4.53
2018-05-15T16:52:53.099Z,5.00
2018-05-15T16:55:56.333Z,4.33
2018-05-15T16:58:59.853Z,5.70
2018-05-15T17:02:03.060Z,5.50
2018-05-15T17:05:07.116Z,7.43
2018-05-15T17:08:10.429Z,6.47
2018-05-15T17:11:13.789Z,4.47
2018-05-15T17:14:17.083Z,4.93
2018-05-15T17:17:22.063Z,4.30
2018-05-15T17:20:25.284Z,4.97
2018-05-15T17:23:28.583Z,4.60
2018-05-15T17:26:32.581Z,4.30
2018-05-15T17:29:35.774Z,3.97
2018-05-15T17:32:38.997Z,4.90
2018-05-15T17:35:43.057Z,4.10
2018-05-15T17:38:46.251Z,3.43
2018-05-15T17:41:50.312Z,4.13
2018-05-15T17:44:56.211Z,3.80
2018-05-15T17:47:59.510Z,4.23
2018-05-15T17:51:02.712Z,4.30
2018-05-15T17:54:05.903Z,4.30
2018-05-15T17:57:09.875Z,4.63
2018-05-15T18:00:13.884Z,4.77
2018-05-15T18:03:17.104Z,4.97
2018-05-15T18:06:20.926Z,5.60
2018-05-15T18:09:24.155Z,4.97
2018-05-15T18:12:27.419Z,4.40
2018-05-15T18:15:31.370Z,5.57
2018-05-15T18:18:35.721Z,5.50
2018-05-15T18:21:39.768Z,4.77
2018-05-15T18:24:43.158Z,5.33
2018-05-15T18:27:46.378Z,6.27
2018-05-15T18:30:52.016Z,5.80
2018-05-15T18:33:56.545Z,6.20
2018-05-15T18:37:00.233Z,5.40
2018-05-15T18:40:03.498Z,6.70
2018-05-15T18:43:07.547Z,5.90
2018-05-15T18:46:11.327Z,5.40
2018-05-15T18:49:14.884Z,6.83
2018-05-15T18:52:18.172Z,10.50
2018-05-15T18:55:23.689Z,5.37
2018-05-15T18:58:30.056Z,5.17
2018-05-15T19:01:36.184Z,8.60
2018-05-15T19:04:39.775Z,5.40
2018-05-15T19:07:43.180Z,5.63
2018-05-15T19:10:46.492Z,5.80
2018-05-15T19:13:52.273Z,5.50
2018-05-15T19:16:55.579Z,5.53
2018-05-15T19:19:59.010Z,5.73
2018-05-15T19:23:04.886Z,6.80
2018-05-15T19:26:08.643Z,5.43
2018-05-15T19:29:12.095Z,5.93
2018-05-15T19:32:17.287Z,5.73
2018-05-15T19:35:30.055Z,5.87
2018-05-15T19:38:33.577Z,6.57
2018-05-15T19:45:29.813Z,6.07
2018-05-15T19:48:33.094Z,6.10
2018-05-15T19:51:36.480Z,5.80
2018-05-15T19:54:40.518Z,6.03
2018-05-15T19:57:43.749Z,5.67
2018-05-15T20:00:47.219Z,5.77
2018-05-15T20:03:50.834Z,6.73
2018-05-15T20:06:56.999Z,6.70
2018-05-15T20:10:00.303Z,6.23
2018-05-15T20:13:03.864Z,6.00
2018-05-15T20:16:07.847Z,6.00
2018-05-15T20:19:11.010Z,6.40
2018-05-15T20:22:15.026Z,5.80
2018-05-15T20:25:18.274Z,6.17
2018-05-15T20:28:21.457Z,5.43
2018-05-15T20:31:25.834Z,5.50
2018-05-15T20:34:29.094Z,5.80
2018-05-15T20:37:33.559Z,5.13
2018-05-15T20:40:36.846Z,5.17
2018-05-15T20:43:40.054Z,5.37
2018-05-15T20:46:43.385Z,4.40
2018-05-15T20:49:47.307Z,4.87
2018-05-15T20:52:50.840Z,4.73
2018-05-15T20:55:54.089Z,4.30
2018-05-15T20:58:58.500Z,5.20
2018-05-15T21:02:02.304Z,4.43
2018-05-15T21:05:06.259Z,5.07
2018-05-15T21:08:09.514Z,4.83
2018-05-15T21:11:13.903Z,5.33
2018-05-15T21:14:17.240Z,5.17
2018-05-15T21:17:21.082Z,5.10
2018-05-15T21:20:24.672Z,5.37
2018-05-15T21:23:27.984Z,5.63
2018-05-15T21:26:32.735Z,5.90
2018-05-15T21:29:35.897Z,4.67
2018-05-15T21:32:39.104Z,4.90
2018-05-15T21:35:42.324Z,5.30
2018-05-15T21:38:45.491Z,5.37
2018-05-15T21:41:48.806Z,4.60
2018-05-15T21:44:52.225Z,5.10
2018-05-15T21:47:55.743Z,5.33
2018-05-15T21:51:00.250Z,5.53
2018-05-15T21:54:03.447Z,5.60
2018-05-15T21:57:06.693Z,5.10
2018-05-15T22:00:09.940Z,5.20
2018-05-15T22:03:13.195Z,5.60
2018-05-15T22:06:17.229Z,5.67
2018-05-15T22:09:21.974Z,6.27
2018-05-15T22:12:37.536Z,6.20
2018-05-15T22:15:52.443Z,6.50
2018-05-15T22:19:07.562Z,7.13
2018-05-15T22:22:15.074Z,7.00
2018-05-15T22:25:18.376Z,6.90
2018-05-15T22:28:21.707Z,6.80
2018-05-15T22:31:24.959Z,6.03
2018-05-15T22:34:28.128Z,6.53
2018-05-15T22:37:31.391Z,6.43
2018-05-15T22:40:34.595Z,6.27
2018-05-15T22:43:37.852Z,6.83
2018-05-15T22:46:41.049Z,5.87
2018-05-15T22:49:44.264Z,6.37
2018-05-15T22:52:48.255Z,6.43
2018-05-15T22:55:51.500Z,6.40
2018-05-15T22:58:56.636Z,5.97
2018-05-15T23:02:00.567Z,6.30
2018-05-15T23:05:03.918Z,6.37
2018-05-15T23:08:07.155Z,5.87
2018-05-15T23:11:10.329Z,6.03
2018-05-15T23:14:13.945Z,5.40
2018-05-15T23:17:18.503Z,5.60
2018-05-15T23:20:21.733Z,5.83
2018-05-15T23:23:24.938Z,5.23
2018-05-15T23:26:28.116Z,5.70
2018-05-15T23:29:31.836Z,5.77
2018-05-15T23:32:35.554Z,5.63
2018-05-15T23:35:39.548Z,5.53
2018-05-15T23:38:42.798Z,5.10
2018-05-15T23:41:46.841Z,5.03
2018-05-15T23:44:50.034Z,5.30
2018-05-15T23:47:53.735Z,5.10
2018-05-15T23:50:57.032Z,3.83
2018-05-15T23:54:00.337Z,4.43
2018-05-15T23:57:03.533Z,3.20
